sensor_id;sensor_type;location;lat;lon;timestamp;pressure;altitude;pressure_sealevel;temperature;humidity
37856;BME280;23694;43.274;26.924;2023-08-07T00:01:32;97932.56;;;20.87;86.23
37856;BME280;23694;43.274;26.924;2023-08-07T00:04:31;97938.91;;;20.86;86.57
37856;BME280;23694;43.274;26.924;2023-08-07T00:07:53;97950.28;;;20.80;86.54
37856;BME280;23694;43.274;26.924;2023-08-07T00:10:43;97938.19;;;20.78;86.56
37856;BME280;23694;43.274;26.924;2023-08-07T00:13:46;97947.72;;;20.66;87.46
37856;BME280;23694;43.274;26.924;2023-08-07T00:16:49;97953.25;;;20.64;87.39
37856;BME280;23694;43.274;26.924;2023-08-07T00:19:52;97940.53;;;20.60;87.16
37856;BME280;23694;43.274;26.924;2023-08-07T00:22:54;97943.13;;;20.53;87.72
37856;BME280;23694;43.274;26.924;2023-08-07T00:25:36;97951.88;;;20.47;87.71
37856;BME280;23694;43.274;26.924;2023-08-07T00:28:34;97947.81;;;20.30;89.08
37856;BME280;23694;43.274;26.924;2023-08-07T00:31:10;97959.06;;;20.32;89.05
37856;BME280;23694;43.274;26.924;2023-08-07T00:34:07;97960.09;;;20.31;88.72
37856;BME280;23694;43.274;26.924;2023-08-07T00:36:46;97963.50;;;20.24;89.25
37856;BME280;23694;43.274;26.924;2023-08-07T00:39:52;97951.78;;;20.19;89.46
37856;BME280;23694;43.274;26.924;2023-08-07T00:42:32;97945.13;;;20.08;90.37
37856;BME280;23694;43.274;26.924;2023-08-07T00:45:34;97935.56;;;20.14;89.96
37856;BME280;23694;43.274;26.924;2023-08-07T00:48:17;97950.81;;;20.05;90.82
37856;BME280;23694;43.274;26.924;2023-08-07T00:51:07;97937.84;;;19.95;91.44
37856;BME280;23694;43.274;26.924;2023-08-07T00:54:06;97945.16;;;19.93;91.22
37856;BME280;23694;43.274;26.924;2023-08-07T01:00:04;97950.03;;;19.90;91.46
37856;BME280;23694;43.274;26.924;2023-08-07T01:08:55;97974.44;;;19.79;91.45
37856;BME280;23694;43.274;26.924;2023-08-07T01:11:49;97978.47;;;19.75;91.35
37856;BME280;23694;43.274;26.924;2023-08-07T01:18:13;97998.84;;;19.68;90.38
37856;BME280;23694;43.274;26.924;2023-08-07T01:20:45;97987.69;;;19.57;90.63
37856;BME280;23694;43.274;26.924;2023-08-07T01:23:14;98002.97;;;19.55;90.20
37856;BME280;23694;43.274;26.924;2023-08-07T01:25:58;98006.31;;;19.49;89.90
37856;BME280;23694;43.274;26.924;2023-08-07T01:28:58;98000.50;;;19.54;89.47
37856;BME280;23694;43.274;26.924;2023-08-07T01:31:53;97999.50;;;19.55;89.48
37856;BME280;23694;43.274;26.924;2023-08-07T01:37:35;98012.78;;;19.55;89.31
37856;BME280;23694;43.274;26.924;2023-08-07T01:43:34;98030.03;;;19.36;90.28
37856;BME280;23694;43.274;26.924;2023-08-07T01:46:06;98034.88;;;19.32;90.34
37856;BME280;23694;43.274;26.924;2023-08-07T01:48:51;98026.72;;;19.34;90.04
37856;BME280;23694;43.274;26.924;2023-08-07T01:54:04;98025.25;;;19.31;89.40
37856;BME280;23694;43.274;26.924;2023-08-07T01:57:15;98023.59;;;19.30;89.21
37856;BME280;23694;43.274;26.924;2023-08-07T02:00:13;98028.00;;;19.23;89.30
37856;BME280;23694;43.274;26.924;2023-08-07T02:03:05;98023.06;;;19.20;89.04
37856;BME280;23694;43.274;26.924;2023-08-07T02:05:41;98005.66;;;19.18;89.11
37856;BME280;23694;43.274;26.924;2023-08-07T02:10:52;98024.63;;;19.29;88.55
37856;BME280;23694;43.274;26.924;2023-08-07T02:13:46;98023.34;;;19.25;88.27
37856;BME280;23694;43.274;26.924;2023-08-07T02:16:38;98021.66;;;19.10;88.36
37856;BME280;23694;43.274;26.924;2023-08-07T02:19:44;98031.56;;;19.16;88.03
37856;BME280;23694;43.274;26.924;2023-08-07T02:22:50;98028.81;;;19.09;88.33
37856;BME280;23694;43.274;26.924;2023-08-07T02:25:42;98037.97;;;19.07;88.16
37856;BME280;23694;43.274;26.924;2023-08-07T02:28:54;98032.28;;;19.10;87.89
37856;BME280;23694;43.274;26.924;2023-08-07T02:31:56;98042.34;;;18.99;88.41
37856;BME280;23694;43.274;26.924;2023-08-07T02:34:41;98047.19;;;18.96;88.35
37856;BME280;23694;43.274;26.924;2023-08-07T02:40:10;98052.66;;;18.94;87.83
37856;BME280;23694;43.274;26.924;2023-08-07T02:42:59;98058.78;;;18.95;87.65
37856;BME280;23694;43.274;26.924;2023-08-07T02:45:59;98062.75;;;18.99;86.93
37856;BME280;23694;43.274;26.924;2023-08-07T02:49:03;98063.63;;;18.91;87.43
37856;BME280;23694;43.274;26.924;2023-08-07T02:51:39;98048.41;;;18.85;87.75
37856;BME280;23694;43.274;26.924;2023-08-07T02:57:02;98055.72;;;18.83;87.31
37856;BME280;23694;43.274;26.924;2023-08-07T03:00:00;98062.81;;;18.91;86.61
37856;BME280;23694;43.274;26.924;2023-08-07T03:02:45;98052.75;;;18.86;86.84
37856;BME280;23694;43.274;26.924;2023-08-07T03:05:57;98067.97;;;18.84;86.10
37856;BME280;23694;43.274;26.924;2023-08-07T03:11:49;98061.84;;;18.84;85.63
37856;BME280;23694;43.274;26.924;2023-08-07T03:14:33;98081.59;;;18.81;85.54
37856;BME280;23694;43.274;26.924;2023-08-07T03:20:05;98104.66;;;18.81;84.57
37856;BME280;23694;43.274;26.924;2023-08-07T03:26:00;98115.53;;;18.94;83.25
37856;BME280;23694;43.274;26.924;2023-08-07T03:29:00;98111.72;;;19.11;82.39
37856;BME280;23694;43.274;26.924;2023-08-07T03:31:53;98120.44;;;19.20;80.93
37856;BME280;23694;43.274;26.924;2023-08-07T03:34:36;98115.03;;;19.13;80.85
37856;BME280;23694;43.274;26.924;2023-08-07T03:44:19;98132.31;;;19.70;77.65
37856;BME280;23694;43.274;26.924;2023-08-07T03:53:45;98137.16;;;20.76;71.07
37856;BME280;23694;43.274;26.924;2023-08-07T03:56:36;98125.25;;;21.14;68.57
37856;BME280;23694;43.274;26.924;2023-08-07T03:59:23;98138.00;;;21.19;68.38
37856;BME280;23694;43.274;26.924;2023-08-07T04:02:06;98131.09;;;21.46;66.56
37856;BME280;23694;43.274;26.924;2023-08-07T04:04:55;98133.72;;;22.02;64.00
37856;BME280;23694;43.274;26.924;2023-08-07T04:07:38;98139.59;;;22.19;62.46
37856;BME280;23694;43.274;26.924;2023-08-07T04:16:57;98139.31;;;22.48;60.05
37856;BME280;23694;43.274;26.924;2023-08-07T04:19:42;98146.75;;;22.66;59.31
37856;BME280;23694;43.274;26.924;2023-08-07T04:22:41;98161.09;;;23.19;57.46
37856;BME280;23694;43.274;26.924;2023-08-07T04:25:38;98168.53;;;23.77;55.47
37856;BME280;23694;43.274;26.924;2023-08-07T04:28:33;98162.91;;;24.31;52.88
37856;BME280;23694;43.274;26.924;2023-08-07T04:31:11;98162.28;;;24.29;52.46
37856;BME280;23694;43.274;26.924;2023-08-07T04:33:57;98160.44;;;24.03;53.20
37856;BME280;23694;43.274;26.924;2023-08-07T04:36:39;98178.34;;;24.29;52.94
37856;BME280;23694;43.274;26.924;2023-08-07T04:39:49;98168.25;;;24.82;50.00
37856;BME280;23694;43.274;26.924;2023-08-07T04:42:48;98172.06;;;25.31;48.76
37856;BME280;23694;43.274;26.924;2023-08-07T04:45:30;98174.72;;;26.12;46.17
37856;BME280;23694;43.274;26.924;2023-08-07T04:48:25;98184.94;;;26.22;45.51
37856;BME280;23694;43.274;26.924;2023-08-07T04:51:29;98187.94;;;26.69;44.52
37856;BME280;23694;43.274;26.924;2023-08-07T04:54:33;98193.03;;;27.37;42.27
37856;BME280;23694;43.274;26.924;2023-08-07T04:57:26;98197.22;;;27.86;40.73
37856;BME280;23694;43.274;26.924;2023-08-07T05:03:05;98207.69;;;27.53;40.74
37856;BME280;23694;43.274;26.924;2023-08-07T05:06:09;98211.38;;;27.82;40.28
37856;BME280;23694;43.274;26.924;2023-08-07T05:08:59;98220.13;;;28.70;38.40
37856;BME280;23694;43.274;26.924;2023-08-07T05:11:38;98219.53;;;29.09;37.08
37856;BME280;23694;43.274;26.924;2023-08-07T05:14:22;98229.19;;;29.33;36.20
37856;BME280;23694;43.274;26.924;2023-08-07T05:17:07;98220.75;;;29.91;35.91
37856;BME280;23694;43.274;26.924;2023-08-07T05:19:59;98223.72;;;30.62;34.10
37856;BME280;23694;43.274;26.924;2023-08-07T05:23:14;98223.13;;;31.04;33.24
37856;BME280;23694;43.274;26.924;2023-08-07T05:26:07;98226.97;;;30.64;33.74
37856;BME280;23694;43.274;26.924;2023-08-07T05:29:30;98211.41;;;29.65;35.24
37856;BME280;23694;43.274;26.924;2023-08-07T05:32:05;98222.91;;;29.16;35.90
37856;BME280;23694;43.274;26.924;2023-08-07T05:38:07;98215.59;;;28.01;37.70
37856;BME280;23694;43.274;26.924;2023-08-07T05:40:38;98213.66;;;26.58;40.95
37856;BME280;23694;43.274;26.924;2023-08-07T05:43:07;98217.03;;;25.67;42.37
37856;BME280;23694;43.274;26.924;2023-08-07T05:45:40;98218.44;;;25.38;44.11
37856;BME280;23694;43.274;26.924;2023-08-07T05:48:25;98201.88;;;24.72;46.27
37856;BME280;23694;43.274;26.924;2023-08-07T05:51:05;98198.09;;;24.34;46.67
37856;BME280;23694;43.274;26.924;2023-08-07T05:54:00;98203.47;;;24.15;50.03
37856;BME280;23694;43.274;26.924;2023-08-07T05:56:38;98207.19;;;24.07;48.95
37856;BME280;23694;43.274;26.924;2023-08-07T05:59:25;98206.13;;;24.15;49.09
37856;BME280;23694;43.274;26.924;2023-08-07T06:02:02;98206.75;;;24.17;48.40
37856;BME280;23694;43.274;26.924;2023-08-07T06:07:22;98201.13;;;24.45;47.49
37856;BME280;23694;43.274;26.924;2023-08-07T06:10:05;98203.41;;;24.41;47.24
37856;BME280;23694;43.274;26.924;2023-08-07T06:15:45;98192.69;;;24.48;46.44
37856;BME280;23694;43.274;26.924;2023-08-07T06:18:24;98191.03;;;24.47;45.62
37856;BME280;23694;43.274;26.924;2023-08-07T06:21:07;98174.66;;;24.17;46.03
37856;BME280;23694;43.274;26.924;2023-08-07T06:23:43;98178.16;;;24.17;46.25
37856;BME280;23694;43.274;26.924;2023-08-07T06:26:46;98188.00;;;24.30;46.03
37856;BME280;23694;43.274;26.924;2023-08-07T06:35:31;98208.41;;;23.91;44.54
37856;BME280;23694;43.274;26.924;2023-08-07T06:38:46;98206.56;;;23.92;45.37
37856;BME280;23694;43.274;26.924;2023-08-07T06:41:46;98212.91;;;24.04;45.73
37856;BME280;23694;43.274;26.924;2023-08-07T06:44:18;98210.47;;;24.29;46.34
37856;BME280;23694;43.274;26.924;2023-08-07T06:47:07;98215.13;;;24.47;44.12
37856;BME280;23694;43.274;26.924;2023-08-07T06:52:45;98226.09;;;24.32;44.46
37856;BME280;23694;43.274;26.924;2023-08-07T06:55:51;98226.06;;;24.39;43.35
37856;BME280;23694;43.274;26.924;2023-08-07T06:58:49;98225.66;;;24.35;43.76
37856;BME280;23694;43.274;26.924;2023-08-07T07:01:46;98224.19;;;24.46;45.09
37856;BME280;23694;43.274;26.924;2023-08-07T07:04:59;98232.97;;;24.66;42.78
37856;BME280;23694;43.274;26.924;2023-08-07T07:08:01;98239.97;;;24.74;42.80
37856;BME280;23694;43.274;26.924;2023-08-07T07:13:53;98227.63;;;24.73;42.94
37856;BME280;23694;43.274;26.924;2023-08-07T07:16:34;98238.47;;;24.91;42.50
37856;BME280;23694;43.274;26.924;2023-08-07T07:19:25;98236.59;;;24.91;42.61
37856;BME280;23694;43.274;26.924;2023-08-07T07:25:07;98243.78;;;25.04;42.11
37856;BME280;23694;43.274;26.924;2023-08-07T08:40:57;98219.53;;;26.12;38.09
37856;BME280;23694;43.274;26.924;2023-08-07T08:43:24;98221.38;;;26.11;37.10
37856;BME280;23694;43.274;26.924;2023-08-07T08:45:51;98217.16;;;26.22;37.05
37856;BME280;23694;43.274;26.924;2023-08-07T08:48:19;98207.81;;;26.25;36.83
37856;BME280;23694;43.274;26.924;2023-08-07T08:50:49;98219.94;;;26.34;36.47
37856;BME280;23694;43.274;26.924;2023-08-07T08:53:16;98214.06;;;26.43;36.58
37856;BME280;23694;43.274;26.924;2023-08-07T08:55:43;98228.31;;;26.44;36.77
37856;BME280;23694;43.274;26.924;2023-08-07T08:58:14;98242.84;;;26.36;36.37
37856;BME280;23694;43.274;26.924;2023-08-07T09:00:41;98237.13;;;26.26;36.16
37856;BME280;23694;43.274;26.924;2023-08-07T09:03:07;98226.34;;;26.33;36.40
37856;BME280;23694;43.274;26.924;2023-08-07T09:05:35;98226.19;;;26.28;36.42
37856;BME280;23694;43.274;26.924;2023-08-07T09:08:01;98242.84;;;26.54;36.34
37856;BME280;23694;43.274;26.924;2023-08-07T09:10:29;98240.25;;;26.66;36.43
37856;BME280;23694;43.274;26.924;2023-08-07T09:13:00;98241.06;;;26.85;35.89
37856;BME280;23694;43.274;26.924;2023-08-07T09:15:30;98242.09;;;26.84;35.62
37856;BME280;23694;43.274;26.924;2023-08-07T09:17:57;98249.25;;;26.90;36.13
37856;BME280;23694;43.274;26.924;2023-08-07T09:20:27;98236.41;;;27.10;35.54
37856;BME280;23694;43.274;26.924;2023-08-07T09:22:54;98242.00;;;27.09;34.77
37856;BME280;23694;43.274;26.924;2023-08-07T09:25:30;98234.81;;;27.21;34.82
37856;BME280;23694;43.274;26.924;2023-08-07T09:27:57;98245.44;;;27.16;34.63
37856;BME280;23694;43.274;26.924;2023-08-07T09:30:27;98258.63;;;27.17;35.11
37856;BME280;23694;43.274;26.924;2023-08-07T09:32:56;98257.50;;;27.25;33.89
37856;BME280;23694;43.274;26.924;2023-08-07T09:35:22;98257.47;;;27.13;34.05
37856;BME280;23694;43.274;26.924;2023-08-07T09:37:50;98270.66;;;27.15;34.09
37856;BME280;23694;43.274;26.924;2023-08-07T09:40:16;98272.81;;;27.25;34.22
37856;BME280;23694;43.274;26.924;2023-08-07T09:42:42;98272.56;;;27.44;33.86
37856;BME280;23694;43.274;26.924;2023-08-07T09:45:25;98274.22;;;27.57;33.16
37856;BME280;23694;43.274;26.924;2023-08-07T09:48:02;98280.00;;;27.61;33.35
37856;BME280;23694;43.274;26.924;2023-08-07T09:50:29;98277.50;;;27.59;33.37
37856;BME280;23694;43.274;26.924;2023-08-07T09:52:56;98275.00;;;27.76;33.27
37856;BME280;23694;43.274;26.924;2023-08-07T09:55:24;98291.16;;;27.88;33.20
37856;BME280;23694;43.274;26.924;2023-08-07T09:57:51;98288.28;;;28.01;33.10
37856;BME280;23694;43.274;26.924;2023-08-07T10:00:18;98286.84;;;27.87;32.91
37856;BME280;23694;43.274;26.924;2023-08-07T10:02:48;98284.41;;;27.97;32.89
37856;BME280;23694;43.274;26.924;2023-08-07T10:05:15;98287.94;;;28.09;32.85
37856;BME280;23694;43.274;26.924;2023-08-07T10:07:41;98283.75;;;28.36;32.33
37856;BME280;23694;43.274;26.924;2023-08-07T10:10:08;98305.53;;;28.35;32.12
37856;BME280;23694;43.274;26.924;2023-08-07T10:12:36;98300.59;;;28.20;32.65
37856;BME280;23694;43.274;26.924;2023-08-07T10:15:03;98303.56;;;28.30;32.55
37856;BME280;23694;43.274;26.924;2023-08-07T10:17:29;98303.19;;;28.27;32.24
37856;BME280;23694;43.274;26.924;2023-08-07T10:19:57;98293.72;;;28.24;31.34
37856;BME280;23694;43.274;26.924;2023-08-07T10:22:25;98302.72;;;28.30;31.58
37856;BME280;23694;43.274;26.924;2023-08-07T10:24:54;98295.81;;;28.34;31.17
37856;BME280;23694;43.274;26.924;2023-08-07T10:27:23;98299.91;;;28.36;31.39
37856;BME280;23694;43.274;26.924;2023-08-07T10:29:51;98300.38;;;28.45;31.38
37856;BME280;23694;43.274;26.924;2023-08-07T10:32:20;98294.06;;;28.51;31.20
37856;BME280;23694;43.274;26.924;2023-08-07T10:34:50;98302.97;;;28.63;30.69
37856;BME280;23694;43.274;26.924;2023-08-07T10:37:42;98299.91;;;28.60;30.99
37856;BME280;23694;43.274;26.924;2023-08-07T10:40:10;98302.81;;;28.58;30.87
37856;BME280;23694;43.274;26.924;2023-08-07T10:42:56;98306.25;;;28.65;30.90
37856;BME280;23694;43.274;26.924;2023-08-07T10:45:26;98304.25;;;28.72;30.74
37856;BME280;23694;43.274;26.924;2023-08-07T10:48:05;98317.03;;;28.65;30.03
37856;BME280;23694;43.274;26.924;2023-08-07T10:50:33;98305.91;;;28.62;29.75
37856;BME280;23694;43.274;26.924;2023-08-07T10:53:01;98312.31;;;28.72;29.94
37856;BME280;23694;43.274;26.924;2023-08-07T10:55:31;98308.34;;;28.75;30.12
37856;BME280;23694;43.274;26.924;2023-08-07T10:57:57;98315.69;;;29.03;30.21
37856;BME280;23694;43.274;26.924;2023-08-07T11:00:29;98321.28;;;29.13;29.76
37856;BME280;23694;43.274;26.924;2023-08-07T11:02:57;98329.13;;;29.15;29.32
37856;BME280;23694;43.274;26.924;2023-08-07T11:05:24;98310.59;;;29.18;29.56
37856;BME280;23694;43.274;26.924;2023-08-07T11:07:53;98314.06;;;29.02;29.99
37856;BME280;23694;43.274;26.924;2023-08-07T11:13:46;98321.72;;;29.33;29.78
37856;BME280;23694;43.274;26.924;2023-08-07T11:16:12;98318.41;;;29.43;29.74
37856;BME280;23694;43.274;26.924;2023-08-07T11:18:38;98315.13;;;29.41;28.95
37856;BME280;23694;43.274;26.924;2023-08-07T11:21:08;98317.34;;;29.44;29.24
37856;BME280;23694;43.274;26.924;2023-08-07T11:23:37;98328.16;;;29.32;29.87
37856;BME280;23694;43.274;26.924;2023-08-07T11:26:05;98320.91;;;29.33;29.18
37856;BME280;23694;43.274;26.924;2023-08-07T11:28:32;98317.34;;;29.44;29.93
37856;BME280;23694;43.274;26.924;2023-08-07T11:30:58;98318.88;;;29.40;29.43
37856;BME280;23694;43.274;26.924;2023-08-07T11:33:25;98322.16;;;29.42;28.86
37856;BME280;23694;43.274;26.924;2023-08-07T11:35:52;98324.50;;;29.50;29.08
37856;BME280;23694;43.274;26.924;2023-08-07T11:40:44;98316.66;;;29.65;29.20
37856;BME280;23694;43.274;26.924;2023-08-07T11:43:10;98322.41;;;29.86;28.56
37856;BME280;23694;43.274;26.924;2023-08-07T11:45:36;98321.94;;;29.89;29.08
37856;BME280;23694;43.274;26.924;2023-08-07T11:48:03;98316.44;;;29.84;28.78
37856;BME280;23694;43.274;26.924;2023-08-07T11:53:03;98315.38;;;29.85;28.16
37856;BME280;23694;43.274;26.924;2023-08-07T11:55:29;98316.44;;;29.84;28.54
37856;BME280;23694;43.274;26.924;2023-08-07T11:57:56;98307.69;;;30.05;27.93
37856;BME280;23694;43.274;26.924;2023-08-07T12:00:25;98299.75;;;29.87;27.77
37856;BME280;23694;43.274;26.924;2023-08-07T12:03:28;98298.19;;;29.91;28.50
37856;BME280;23694;43.274;26.924;2023-08-07T12:05:56;98290.59;;;29.88;28.53
37856;BME280;23694;43.274;26.924;2023-08-07T12:08:23;98303.50;;;30.14;27.84
37856;BME280;23694;43.274;26.924;2023-08-07T12:10:50;98295.56;;;30.08;27.50
37856;BME280;23694;43.274;26.924;2023-08-07T12:13:20;98283.16;;;29.78;26.95
37856;BME280;23694;43.274;26.924;2023-08-07T12:15:46;98288.91;;;29.98;27.29
37856;BME280;23694;43.274;26.924;2023-08-07T12:18:18;98289.75;;;30.16;27.17
37856;BME280;23694;43.274;26.924;2023-08-07T12:20:44;98294.00;;;30.12;26.92
37856;BME280;23694;43.274;26.924;2023-08-07T12:23:17;98296.38;;;30.08;26.50
37856;BME280;23694;43.274;26.924;2023-08-07T12:25:43;98300.06;;;30.02;26.53
37856;BME280;23694;43.274;26.924;2023-08-07T12:28:10;98302.03;;;30.23;26.69
37856;BME280;23694;43.274;26.924;2023-08-07T12:30:37;98283.59;;;30.37;26.38
37856;BME280;23694;43.274;26.924;2023-08-07T12:33:04;98293.66;;;30.42;25.76
37856;BME280;23694;43.274;26.924;2023-08-07T12:35:31;98287.59;;;30.01;26.46
37856;BME280;23694;43.274;26.924;2023-08-07T12:37:57;98297.19;;;30.09;26.95
37856;BME280;23694;43.274;26.924;2023-08-07T12:40:43;98296.63;;;30.23;26.47
37856;BME280;23694;43.274;26.924;2023-08-07T12:43:09;98297.00;;;30.32;26.20
37856;BME280;23694;43.274;26.924;2023-08-07T12:45:35;98294.78;;;30.46;25.95
37856;BME280;23694;43.274;26.924;2023-08-07T12:48:02;98301.25;;;30.45;26.79
37856;BME280;23694;43.274;26.924;2023-08-07T12:50:28;98302.16;;;30.50;26.42
37856;BME280;23694;43.274;26.924;2023-08-07T12:52:55;98308.97;;;30.36;26.26
37856;BME280;23694;43.274;26.924;2023-08-07T12:55:21;98306.59;;;30.40;26.17
37856;BME280;23694;43.274;26.924;2023-08-07T12:57:47;98304.88;;;30.34;26.46
37856;BME280;23694;43.274;26.924;2023-08-07T13:00:15;98322.06;;;30.44;26.07
37856;BME280;23694;43.274;26.924;2023-08-07T13:02:44;98317.81;;;30.32;26.29
37856;BME280;23694;43.274;26.924;2023-08-07T13:05:11;98318.88;;;30.31;26.24
37856;BME280;23694;43.274;26.924;2023-08-07T13:07:41;98310.78;;;30.31;25.81
37856;BME280;23694;43.274;26.924;2023-08-07T13:10:09;98314.13;;;30.21;26.12
37856;BME280;23694;43.274;26.924;2023-08-07T13:12:37;98307.19;;;30.08;25.52
37856;BME280;23694;43.274;26.924;2023-08-07T13:15:04;98298.66;;;30.00;26.60
37856;BME280;23694;43.274;26.924;2023-08-07T13:19:58;98306.63;;;29.78;25.81
37856;BME280;23694;43.274;26.924;2023-08-07T13:22:25;98306.66;;;29.49;27.00
37856;BME280;23694;43.274;26.924;2023-08-07T13:24:51;98308.91;;;29.86;26.65
37856;BME280;23694;43.274;26.924;2023-08-07T13:27:17;98303.19;;;29.82;26.18
37856;BME280;23694;43.274;26.924;2023-08-07T13:30:03;98305.56;;;29.79;26.39
37856;BME280;23694;43.274;26.924;2023-08-07T13:32:29;98304.47;;;29.63;26.27
37856;BME280;23694;43.274;26.924;2023-08-07T13:34:56;98310.47;;;29.82;25.95
37856;BME280;23694;43.274;26.924;2023-08-07T13:37:22;98299.91;;;29.80;25.45
37856;BME280;23694;43.274;26.924;2023-08-07T13:39:48;98316.59;;;29.77;25.84
37856;BME280;23694;43.274;26.924;2023-08-07T13:45:11;98316.66;;;29.65;26.13
37856;BME280;23694;43.274;26.924;2023-08-07T13:47:39;98322.00;;;29.77;25.75
37856;BME280;23694;43.274;26.924;2023-08-07T13:50:06;98320.28;;;29.88;25.67
37856;BME280;23694;43.274;26.924;2023-08-07T13:52:33;98311.56;;;29.97;25.76
37856;BME280;23694;43.274;26.924;2023-08-07T13:55:00;98311.19;;;30.06;25.05
37856;BME280;23694;43.274;26.924;2023-08-07T13:57:26;98320.50;;;29.98;25.92
37856;BME280;23694;43.274;26.924;2023-08-07T13:59:52;98319.53;;;30.04;25.90
37856;BME280;23694;43.274;26.924;2023-08-07T14:02:20;98308.38;;;30.01;25.39
37856;BME280;23694;43.274;26.924;2023-08-07T14:04:46;98314.88;;;30.16;24.99
37856;BME280;23694;43.274;26.924;2023-08-07T14:07:12;98315.94;;;30.32;25.09
37856;BME280;23694;43.274;26.924;2023-08-07T14:09:38;98310.72;;;30.09;25.58
37856;BME280;23694;43.274;26.924;2023-08-07T14:12:04;98314.72;;;30.23;25.45
37856;BME280;23694;43.274;26.924;2023-08-07T14:14:30;98318.63;;;30.15;25.68
37856;BME280;23694;43.274;26.924;2023-08-07T14:16:57;98315.34;;;29.96;25.85
37856;BME280;23694;43.274;26.924;2023-08-07T14:19:26;98313.38;;;29.92;25.79
37856;BME280;23694;43.274;26.924;2023-08-07T14:21:52;98307.97;;;29.92;25.87
37856;BME280;23694;43.274;26.924;2023-08-07T14:24:18;98318.16;;;29.90;25.52
37856;BME280;23694;43.274;26.924;2023-08-07T14:26:44;98313.25;;;29.87;25.76
37856;BME280;23694;43.274;26.924;2023-08-07T14:29:10;98299.91;;;29.80;25.56
37856;BME280;23694;43.274;26.924;2023-08-07T14:31:36;98295.66;;;29.67;25.76
37856;BME280;23694;43.274;26.924;2023-08-07T14:34:02;98296.53;;;29.56;25.81
37856;BME280;23694;43.274;26.924;2023-08-07T14:36:28;98298.84;;;29.64;26.07
37856;BME280;23694;43.274;26.924;2023-08-07T14:38:54;98306.53;;;29.73;26.20
37856;BME280;23694;43.274;26.924;2023-08-07T14:41:20;98295.50;;;29.74;25.97
37856;BME280;23694;43.274;26.924;2023-08-07T14:43:47;98301.38;;;29.71;26.08
37856;BME280;23694;43.274;26.924;2023-08-07T14:46:14;98294.75;;;29.33;26.03
37856;BME280;23694;43.274;26.924;2023-08-07T14:48:40;98289.69;;;29.25;25.99
37856;BME280;23694;43.274;26.924;2023-08-07T14:51:06;98285.44;;;29.41;26.32
37856;BME280;23694;43.274;26.924;2023-08-07T14:53:32;98279.44;;;29.51;26.55
37856;BME280;23694;43.274;26.924;2023-08-07T14:55:58;98283.22;;;29.66;25.72
37856;BME280;23694;43.274;26.924;2023-08-07T14:58:25;98287.22;;;29.64;26.03
37856;BME280;23694;43.274;26.924;2023-08-07T15:00:55;98289.69;;;29.82;25.96
37856;BME280;23694;43.274;26.924;2023-08-07T15:03:21;98281.28;;;29.79;25.19
37856;BME280;23694;43.274;26.924;2023-08-07T15:05:47;98280.53;;;29.66;25.36
37856;BME280;23694;43.274;26.924;2023-08-07T15:08:13;98284.78;;;29.62;25.00
37856;BME280;23694;43.274;26.924;2023-08-07T15:10:40;98288.31;;;29.80;24.51
37856;BME280;23694;43.274;26.924;2023-08-07T15:13:06;98292.78;;;29.74;24.80
37856;BME280;23694;43.274;26.924;2023-08-07T15:15:33;98289.28;;;29.74;24.60
37856;BME280;23694;43.274;26.924;2023-08-07T15:17:59;98278.81;;;29.77;23.94
37856;BME280;23694;43.274;26.924;2023-08-07T15:20:28;98270.22;;;29.80;23.91
37856;BME280;23694;43.274;26.924;2023-08-07T15:22:54;98278.06;;;29.65;23.91
37856;BME280;23694;43.274;26.924;2023-08-07T15:25:21;98283.13;;;29.61;24.13
37856;BME280;23694;43.274;26.924;2023-08-07T15:27:47;98286.06;;;29.60;23.87
37856;BME280;23694;43.274;26.924;2023-08-07T15:30:13;98297.19;;;29.63;23.83
37856;BME280;23694;43.274;26.924;2023-08-07T15:32:39;98296.56;;;29.73;23.89
37856;BME280;23694;43.274;26.924;2023-08-07T15:35:07;98290.16;;;29.62;24.01
37856;BME280;23694;43.274;26.924;2023-08-07T15:37:33;98295.72;;;29.56;23.78
37856;BME280;23694;43.274;26.924;2023-08-07T15:39:59;98296.63;;;29.33;24.42
37856;BME280;23694;43.274;26.924;2023-08-07T15:42:25;98296.97;;;29.25;25.00
37856;BME280;23694;43.274;26.924;2023-08-07T15:44:51;98297.25;;;29.12;25.09
37856;BME280;23694;43.274;26.924;2023-08-07T15:47:17;98297.75;;;29.09;24.98
37856;BME280;23694;43.274;26.924;2023-08-07T15:49:44;98299.84;;;29.07;25.01
37856;BME280;23694;43.274;26.924;2023-08-07T15:52:16;98302.69;;;29.00;25.13
37856;BME280;23694;43.274;26.924;2023-08-07T15:54:44;98297.19;;;28.95;25.14
37856;BME280;23694;43.274;26.924;2023-08-07T15:57:12;98308.06;;;29.00;24.96
37856;BME280;23694;43.274;26.924;2023-08-07T15:59:38;98309.44;;;29.14;24.82
37856;BME280;23694;43.274;26.924;2023-08-07T16:02:05;98306.09;;;28.95;25.27
37856;BME280;23694;43.274;26.924;2023-08-07T16:04:32;98308.91;;;28.77;25.69
37856;BME280;23694;43.274;26.924;2023-08-07T16:06:58;98313.75;;;28.87;25.41
37856;BME280;23694;43.274;26.924;2023-08-07T16:09:24;98308.78;;;28.95;25.43
37856;BME280;23694;43.274;26.924;2023-08-07T16:11:50;98310.69;;;28.60;25.94
37856;BME280;23694;43.274;26.924;2023-08-07T16:14:16;98311.63;;;28.65;26.14
37856;BME280;23694;43.274;26.924;2023-08-07T16:16:43;98321.84;;;28.63;26.28
37856;BME280;23694;43.274;26.924;2023-08-07T16:19:09;98315.63;;;28.63;25.93
37856;BME280;23694;43.274;26.924;2023-08-07T16:21:37;98316.19;;;28.41;26.04
37856;BME280;23694;43.274;26.924;2023-08-07T16:24:03;98324.75;;;28.27;26.35
37856;BME280;23694;43.274;26.924;2023-08-07T16:26:30;98325.31;;;28.29;26.14
37856;BME280;23694;43.274;26.924;2023-08-07T16:28:56;98327.56;;;28.32;26.07
37856;BME280;23694;43.274;26.924;2023-08-07T16:31:22;98330.25;;;28.32;26.15
37856;BME280;23694;43.274;26.924;2023-08-07T16:33:48;98327.09;;;28.23;26.46